sensor_id;sensor_type;location;lat;lon;timestamp;P1;durP1;ratioP1;P2;durP2;ratioP2
7901;SDS011;3996;49.674;10.716;2023-03-04T00:01:25;8.20;;;5.30;;
7901;SDS011;3996;49.674;10.716;2023-03-04T00:03:50;9.63;;;5.47;;
7901;SDS011;3996;49.674;10.716;2023-03-04T00:06:16;8.77;;;5.50;;
7901;SDS011;3996;49.674;10.716;2023-03-04T00:08:42;9.53;;;5.40;;
7901;SDS011;3996;49.674;10.716;2023-03-04T00:11:07;10.00;;;5.97;;
7901;SDS011;3996;49.674;10.716;2023-03-04T00:13:33;12.40;;;6.43;;
7901;SDS011;3996;49.674;10.716;2023-03-04T00:15:58;11.07;;;6.30;;
7901;SDS011;3996;49.674;10.716;2023-03-04T00:18:24;8.87;;;5.60;;
7901;SDS011;3996;49.674;10.716;2023-03-04T00:20:49;11.03;;;6.20;;
7901;SDS011;3996;49.674;10.716;2023-03-04T00:23:15;9.47;;;5.50;;
7901;SDS011;3996;49.674;10.716;2023-03-04T00:25:41;8.83;;;5.80;;
7901;SDS011;3996;49.674;10.716;2023-03-04T00:28:07;9.77;;;5.77;;
7901;SDS011;3996;49.674;10.716;2023-03-04T00:30:32;10.40;;;5.40;;
7901;SDS011;3996;49.674;10.716;2023-03-04T00:32:58;9.17;;;6.17;;
7901;SDS011;3996;49.674;10.716;2023-03-04T00:35:23;9.47;;;5.90;;
7901;SDS011;3996;49.674;10.716;2023-03-04T00:37:49;9.00;;;5.40;;
7901;SDS011;3996;49.674;10.716;2023-03-04T00:40:15;10.90;;;6.23;;
7901;SDS011;3996;49.674;10.716;2023-03-04T00:42:41;11.07;;;6.43;;
7901;SDS011;3996;49.674;10.716;2023-03-04T00:45:07;8.53;;;5.67;;
7901;SDS011;3996;49.674;10.716;2023-03-04T00:47:33;10.87;;;6.70;;
7901;SDS011;3996;49.674;10.716;2023-03-04T00:49:59;9.07;;;6.00;;
7901;SDS011;3996;49.674;10.716;2023-03-04T00:52:24;9.43;;;5.83;;
7901;SDS011;3996;49.674;10.716;2023-03-04T00:54:50;8.47;;;5.57;;
7901;SDS011;3996;49.674;10.716;2023-03-04T00:57:15;10.27;;;5.77;;
7901;SDS011;3996;49.674;10.716;2023-03-04T00:59:41;11.80;;;6.23;;
7901;SDS011;3996;49.674;10.716;2023-03-04T01:02:08;11.93;;;6.57;;
7901;SDS011;3996;49.674;10.716;2023-03-04T01:04:34;10.57;;;6.50;;
7901;SDS011;3996;49.674;10.716;2023-03-04T01:07:00;13.80;;;7.43;;
7901;SDS011;3996;49.674;10.716;2023-03-04T01:09:25;11.17;;;7.23;;
7901;SDS011;3996;49.674;10.716;2023-03-04T01:11:51;11.37;;;6.33;;
7901;SDS011;3996;49.674;10.716;2023-03-04T01:14:17;10.73;;;6.40;;
7901;SDS011;3996;49.674;10.716;2023-03-04T01:16:43;11.40;;;6.30;;
7901;SDS011;3996;49.674;10.716;2023-03-04T01:19:09;11.23;;;6.27;;
7901;SDS011;3996;49.674;10.716;2023-03-04T01:21:34;10.17;;;6.33;;
7901;SDS011;3996;49.674;10.716;2023-03-04T01:24:00;9.80;;;5.27;;
7901;SDS011;3996;49.674;10.716;2023-03-04T01:26:25;10.77;;;5.77;;
7901;SDS011;3996;49.674;10.716;2023-03-04T01:28:51;10.40;;;6.33;;
7901;SDS011;3996;49.674;10.716;2023-03-04T01:31:17;9.03;;;5.93;;
7901;SDS011;3996;49.674;10.716;2023-03-04T01:33:42;8.50;;;5.17;;
7901;SDS011;3996;49.674;10.716;2023-03-04T01:36:08;9.73;;;5.70;;
7901;SDS011;3996;49.674;10.716;2023-03-04T01:38:33;12.97;;;6.67;;
7901;SDS011;3996;49.674;10.716;2023-03-04T01:40:59;15.67;;;8.07;;
7901;SDS011;3996;49.674;10.716;2023-03-04T01:43:26;14.53;;;8.20;;
7901;SDS011;3996;49.674;10.716;2023-03-04T01:45:53;21.17;;;9.77;;
7901;SDS011;3996;49.674;10.716;2023-03-04T01:48:23;16.10;;;8.83;;
7901;SDS011;3996;49.674;10.716;2023-03-04T01:50:58;13.77;;;7.23;;
7901;SDS011;3996;49.674;10.716;2023-03-04T01:53:27;12.20;;;6.83;;
7901;SDS011;3996;49.674;10.716;2023-03-04T01:55:59;11.70;;;7.10;;
7901;SDS011;3996;49.674;10.716;2023-03-04T01:58:36;15.07;;;7.47;;
7901;SDS011;3996;49.674;10.716;2023-03-04T02:01:02;12.70;;;6.87;;
7901;SDS011;3996;49.674;10.716;2023-03-04T02:03:27;12.30;;;6.87;;
7901;SDS011;3996;49.674;10.716;2023-03-04T02:05:53;11.47;;;6.87;;
7901;SDS011;3996;49.674;10.716;2023-03-04T02:08:21;13.20;;;7.80;;
7901;SDS011;3996;49.674;10.716;2023-03-04T02:10:48;12.50;;;6.97;;
7901;SDS011;3996;49.674;10.716;2023-03-04T02:13:15;12.70;;;7.10;;
7901;SDS011;3996;49.674;10.716;2023-03-04T02:15:41;14.97;;;7.60;;
7901;SDS011;3996;49.674;10.716;2023-03-04T02:18:19;10.00;;;6.17;;
7901;SDS011;3996;49.674;10.716;2023-03-04T02:26:29;11.00;;;5.97;;
7901;SDS011;3996;49.674;10.716;2023-03-04T02:28:57;11.37;;;6.17;;
7901;SDS011;3996;49.674;10.716;2023-03-04T02:31:29;10.00;;;6.07;;
7901;SDS011;3996;49.674;10.716;2023-03-04T02:33:59;11.83;;;6.60;;
7901;SDS011;3996;49.674;10.716;2023-03-04T02:36:27;11.10;;;6.20;;
7901;SDS011;3996;49.674;10.716;2023-03-04T02:38:54;11.27;;;6.33;;
7901;SDS011;3996;49.674;10.716;2023-03-04T02:41:25;10.97;;;6.40;;
7901;SDS011;3996;49.674;10.716;2023-03-04T02:43:54;10.50;;;5.93;;
7901;SDS011;3996;49.674;10.716;2023-03-04T02:46:20;10.37;;;6.10;;
7901;SDS011;3996;49.674;10.716;2023-03-04T02:48:47;10.47;;;5.90;;
7901;SDS011;3996;49.674;10.716;2023-03-04T02:51:13;10.57;;;6.63;;
7901;SDS011;3996;49.674;10.716;2023-03-04T02:53:39;12.23;;;6.57;;
7901;SDS011;3996;49.674;10.716;2023-03-04T02:56:05;12.73;;;6.53;;
7901;SDS011;3996;49.674;10.716;2023-03-04T02:58:31;11.70;;;6.73;;
7901;SDS011;3996;49.674;10.716;2023-03-04T03:00:57;13.10;;;7.27;;
7901;SDS011;3996;49.674;10.716;2023-03-04T03:03:23;9.40;;;5.90;;
7901;SDS011;3996;49.674;10.716;2023-03-04T03:05:48;15.20;;;7.60;;
7901;SDS011;3996;49.674;10.716;2023-03-04T03:08:14;11.20;;;7.13;;
7901;SDS011;3996;49.674;10.716;2023-03-04T03:10:40;11.03;;;6.83;;
7901;SDS011;3996;49.674;10.716;2023-03-04T03:13:06;11.20;;;6.80;;
7901;SDS011;3996;49.674;10.716;2023-03-04T03:15:31;13.57;;;6.93;;
7901;SDS011;3996;49.674;10.716;2023-03-04T03:17:57;14.60;;;8.10;;
7901;SDS011;3996;49.674;10.716;2023-03-04T03:20:23;14.77;;;7.83;;
7901;SDS011;3996;49.674;10.716;2023-03-04T03:22:48;15.63;;;7.87;;
7901;SDS011;3996;49.674;10.716;2023-03-04T03:25:14;13.20;;;7.93;;
7901;SDS011;3996;49.674;10.716;2023-03-04T03:27:40;12.27;;;7.40;;
7901;SDS011;3996;49.674;10.716;2023-03-04T03:30:07;15.60;;;7.57;;
7901;SDS011;3996;49.674;10.716;2023-03-04T03:32:34;14.80;;;9.03;;
7901;SDS011;3996;49.674;10.716;2023-03-04T03:35:00;15.03;;;8.60;;
7901;SDS011;3996;49.674;10.716;2023-03-04T03:37:26;13.50;;;8.17;;
7901;SDS011;3996;49.674;10.716;2023-03-04T03:39:51;14.70;;;7.90;;
7901;SDS011;3996;49.674;10.716;2023-03-04T03:42:17;16.50;;;8.67;;
7901;SDS011;3996;49.674;10.716;2023-03-04T03:44:42;14.37;;;7.67;;
7901;SDS011;3996;49.674;10.716;2023-03-04T03:47:08;15.83;;;8.10;;
7901;SDS011;3996;49.674;10.716;2023-03-04T03:49:33;14.23;;;7.73;;
7901;SDS011;3996;49.674;10.716;2023-03-04T03:51:59;14.07;;;7.73;;
7901;SDS011;3996;49.674;10.716;2023-03-04T03:54:25;15.63;;;7.87;;
7901;SDS011;3996;49.674;10.716;2023-03-04T03:56:50;14.50;;;7.60;;
7901;SDS011;3996;49.674;10.716;2023-03-04T03:59:16;16.00;;;8.53;;
7901;SDS011;3996;49.674;10.716;2023-03-04T04:01:41;16.33;;;8.47;;
7901;SDS011;3996;49.674;10.716;2023-03-04T04:04:07;15.73;;;8.13;;
7901;SDS011;3996;49.674;10.716;2023-03-04T04:06:32;14.73;;;7.63;;
7901;SDS011;3996;49.674;10.716;2023-03-04T04:08:58;13.27;;;8.17;;
7901;SDS011;3996;49.674;10.716;2023-03-04T04:11:24;15.40;;;8.57;;
7901;SDS011;3996;49.674;10.716;2023-03-04T04:13:49;12.90;;;7.77;;
7901;SDS011;3996;49.674;10.716;2023-03-04T04:16:15;14.67;;;7.67;;
7901;SDS011;3996;49.674;10.716;2023-03-04T04:18:40;15.27;;;8.27;;
7901;SDS011;3996;49.674;10.716;2023-03-04T04:21:06;13.73;;;8.20;;
7901;SDS011;3996;49.674;10.716;2023-03-04T04:23:32;14.70;;;8.80;;
7901;SDS011;3996;49.674;10.716;2023-03-04T04:25:57;14.27;;;8.30;;
7901;SDS011;3996;49.674;10.716;2023-03-04T04:28:23;13.00;;;7.97;;
7901;SDS011;3996;49.674;10.716;2023-03-04T04:30:49;13.67;;;7.80;;
7901;SDS011;3996;49.674;10.716;2023-03-04T04:33:15;13.70;;;7.50;;
7901;SDS011;3996;49.674;10.716;2023-03-04T04:35:41;12.60;;;7.73;;
7901;SDS011;3996;49.674;10.716;2023-03-04T04:38:07;14.17;;;8.00;;
7901;SDS011;3996;49.674;10.716;2023-03-04T04:40:34;14.70;;;8.50;;
7901;SDS011;3996;49.674;10.716;2023-03-04T04:42:59;15.70;;;7.97;;
7901;SDS011;3996;49.674;10.716;2023-03-04T04:45:25;14.53;;;7.63;;
7901;SDS011;3996;49.674;10.716;2023-03-04T04:47:54;12.70;;;7.70;;
7901;SDS011;3996;49.674;10.716;2023-03-04T04:50:21;14.37;;;7.90;;
7901;SDS011;3996;49.674;10.716;2023-03-04T04:52:48;13.40;;;7.43;;
7901;SDS011;3996;49.674;10.716;2023-03-04T04:55:14;13.13;;;7.93;;
7901;SDS011;3996;49.674;10.716;2023-03-04T04:57:39;13.80;;;7.80;;
7901;SDS011;3996;49.674;10.716;2023-03-04T05:00:05;13.20;;;8.40;;
7901;SDS011;3996;49.674;10.716;2023-03-04T05:02:32;13.77;;;7.70;;
7901;SDS011;3996;49.674;10.716;2023-03-04T05:05:04;15.50;;;7.83;;
7901;SDS011;3996;49.674;10.716;2023-03-04T05:07:31;15.17;;;8.80;;
7901;SDS011;3996;49.674;10.716;2023-03-04T05:09:57;13.63;;;7.47;;
7901;SDS011;3996;49.674;10.716;2023-03-04T05:12:23;13.57;;;8.20;;
7901;SDS011;3996;49.674;10.716;2023-03-04T05:14:48;14.00;;;7.77;;
7901;SDS011;3996;49.674;10.716;2023-03-04T05:17:14;14.97;;;8.57;;
7901;SDS011;3996;49.674;10.716;2023-03-04T05:19:39;14.30;;;8.20;;
7901;SDS011;3996;49.674;10.716;2023-03-04T05:22:05;14.30;;;8.07;;
7901;SDS011;3996;49.674;10.716;2023-03-04T05:24:31;13.30;;;7.97;;
7901;SDS011;3996;49.674;10.716;2023-03-04T05:26:57;13.07;;;7.93;;
7901;SDS011;3996;49.674;10.716;2023-03-04T05:29:22;14.13;;;8.60;;
7901;SDS011;3996;49.674;10.716;2023-03-04T05:31:48;16.60;;;8.67;;
7901;SDS011;3996;49.674;10.716;2023-03-04T05:34:13;15.40;;;8.50;;
7901;SDS011;3996;49.674;10.716;2023-03-04T05:36:39;15.63;;;8.17;;
7901;SDS011;3996;49.674;10.716;2023-03-04T05:39:04;14.63;;;8.33;;
7901;SDS011;3996;49.674;10.716;2023-03-04T05:41:30;14.57;;;8.33;;
7901;SDS011;3996;49.674;10.716;2023-03-04T05:43:56;13.73;;;8.87;;
7901;SDS011;3996;49.674;10.716;2023-03-04T05:46:21;13.77;;;8.07;;
7901;SDS011;3996;49.674;10.716;2023-03-04T05:48:49;12.47;;;7.93;;
7901;SDS011;3996;49.674;10.716;2023-03-04T05:51:16;14.40;;;8.33;;
7901;SDS011;3996;49.674;10.716;2023-03-04T05:53:42;14.20;;;8.37;;
7901;SDS011;3996;49.674;10.716;2023-03-04T05:56:08;12.40;;;8.17;;
7901;SDS011;3996;49.674;10.716;2023-03-04T05:58:35;13.30;;;7.87;;
7901;SDS011;3996;49.674;10.716;2023-03-04T06:01:02;13.83;;;8.60;;
7901;SDS011;3996;49.674;10.716;2023-03-04T06:03:29;16.00;;;8.70;;
7901;SDS011;3996;49.674;10.716;2023-03-04T06:05:54;15.50;;;8.93;;
7901;SDS011;3996;49.674;10.716;2023-03-04T06:08:20;14.10;;;8.93;;
7901;SDS011;3996;49.674;10.716;2023-03-04T06:10:46;16.63;;;10.00;;
7901;SDS011;3996;49.674;10.716;2023-03-04T06:13:12;15.83;;;9.00;;
7901;SDS011;3996;49.674;10.716;2023-03-04T06:15:38;18.20;;;8.77;;
7901;SDS011;3996;49.674;10.716;2023-03-04T06:18:04;15.33;;;8.87;;
7901;SDS011;3996;49.674;10.716;2023-03-04T06:20:30;14.13;;;8.33;;
7901;SDS011;3996;49.674;10.716;2023-03-04T06:22:56;14.70;;;8.33;;
7901;SDS011;3996;49.674;10.716;2023-03-04T06:25:22;15.30;;;8.37;;
7901;SDS011;3996;49.674;10.716;2023-03-04T06:27:48;17.50;;;9.10;;
7901;SDS011;3996;49.674;10.716;2023-03-04T06:30:13;16.10;;;9.00;;
7901;SDS011;3996;49.674;10.716;2023-03-04T06:32:39;15.20;;;9.13;;
7901;SDS011;3996;49.674;10.716;2023-03-04T06:35:08;16.10;;;9.37;;
7901;SDS011;3996;49.674;10.716;2023-03-04T06:37:35;17.97;;;8.97;;
7901;SDS011;3996;49.674;10.716;2023-03-04T06:40:00;16.70;;;9.00;;
7901;SDS011;3996;49.674;10.716;2023-03-04T06:42:27;15.30;;;9.10;;
7901;SDS011;3996;49.674;10.716;2023-03-04T06:44:53;14.10;;;8.60;;
7901;SDS011;3996;49.674;10.716;2023-03-04T06:47:18;16.63;;;9.37;;
7901;SDS011;3996;49.674;10.716;2023-03-04T06:49:44;13.57;;;9.17;;
7901;SDS011;3996;49.674;10.716;2023-03-04T06:52:09;15.23;;;8.33;;
7901;SDS011;3996;49.674;10.716;2023-03-04T06:54:38;15.73;;;9.03;;
7901;SDS011;3996;49.674;10.716;2023-03-04T06:57:04;15.50;;;9.00;;
7901;SDS011;3996;49.674;10.716;2023-03-04T06:59:31;14.87;;;8.80;;
7901;SDS011;3996;49.674;10.716;2023-03-04T07:01:56;14.83;;;8.13;;
7901;SDS011;3996;49.674;10.716;2023-03-04T07:04:22;15.80;;;8.93;;
7901;SDS011;3996;49.674;10.716;2023-03-04T07:06:48;13.73;;;8.53;;
7901;SDS011;3996;49.674;10.716;2023-03-04T07:09:14;15.53;;;9.00;;
7901;SDS011;3996;49.674;10.716;2023-03-04T07:11:40;15.27;;;8.73;;
7901;SDS011;3996;49.674;10.716;2023-03-04T07:14:06;14.00;;;9.00;;
7901;SDS011;3996;49.674;10.716;2023-03-04T07:16:31;15.20;;;8.87;;
7901;SDS011;3996;49.674;10.716;2023-03-04T07:18:57;15.20;;;8.07;;
7901;SDS011;3996;49.674;10.716;2023-03-04T07:21:23;13.90;;;8.63;;
7901;SDS011;3996;49.674;10.716;2023-03-04T07:23:48;15.93;;;9.17;;
7901;SDS011;3996;49.674;10.716;2023-03-04T07:26:14;15.67;;;9.03;;
7901;SDS011;3996;49.674;10.716;2023-03-04T07:28:40;14.73;;;8.27;;
7901;SDS011;3996;49.674;10.716;2023-03-04T07:31:08;15.37;;;8.80;;
7901;SDS011;3996;49.674;10.716;2023-03-04T07:33:35;15.53;;;8.60;;
7901;SDS011;3996;49.674;10.716;2023-03-04T07:36:00;14.77;;;8.70;;
7901;SDS011;3996;49.674;10.716;2023-03-04T07:38:26;15.80;;;8.87;;
7901;SDS011;3996;49.674;10.716;2023-03-04T07:40:55;14.13;;;8.17;;
7901;SDS011;3996;49.674;10.716;2023-03-04T07:43:22;16.60;;;9.27;;
7901;SDS011;3996;49.674;10.716;2023-03-04T07:45:47;15.40;;;8.47;;
7901;SDS011;3996;49.674;10.716;2023-03-04T07:48:13;14.27;;;8.43;;
7901;SDS011;3996;49.674;10.716;2023-03-04T07:50:38;15.00;;;8.13;;
7901;SDS011;3996;49.674;10.716;2023-03-04T07:53:04;14.13;;;8.60;;
7901;SDS011;3996;49.674;10.716;2023-03-04T07:55:29;14.17;;;9.00;;
7901;SDS011;3996;49.674;10.716;2023-03-04T07:57:55;15.97;;;8.97;;
7901;SDS011;3996;49.674;10.716;2023-03-04T08:00:21;17.67;;;8.77;;
7901;SDS011;3996;49.674;10.716;2023-03-04T08:02:47;14.60;;;8.67;;
7901;SDS011;3996;49.674;10.716;2023-03-04T08:05:13;14.93;;;8.93;;
7901;SDS011;3996;49.674;10.716;2023-03-04T08:07:39;15.53;;;8.60;;
7901;SDS011;3996;49.674;10.716;2023-03-04T08:10:05;16.90;;;10.40;;
7901;SDS011;3996;49.674;10.716;2023-03-04T08:12:32;15.40;;;10.37;;
7901;SDS011;3996;49.674;10.716;2023-03-04T08:14:58;17.27;;;10.80;;
7901;SDS011;3996;49.674;10.716;2023-03-04T08:17:23;19.87;;;11.50;;
7901;SDS011;3996;49.674;10.716;2023-03-04T08:19:49;21.07;;;11.33;;
7901;SDS011;3996;49.674;10.716;2023-03-04T08:22:14;17.37;;;10.67;;
7901;SDS011;3996;49.674;10.716;2023-03-04T08:24:40;15.07;;;9.57;;
7901;SDS011;3996;49.674;10.716;2023-03-04T08:27:06;15.40;;;9.80;;
7901;SDS011;3996;49.674;10.716;2023-03-04T08:29:33;17.00;;;10.53;;
7901;SDS011;3996;49.674;10.716;2023-03-04T08:31:58;15.30;;;9.30;;
7901;SDS011;3996;49.674;10.716;2023-03-04T08:34:25;17.30;;;9.87;;
7901;SDS011;3996;49.674;10.716;2023-03-04T08:36:52;17.30;;;9.70;;
7901;SDS011;3996;49.674;10.716;2023-03-04T08:39:18;15.97;;;9.43;;
7901;SDS011;3996;49.674;10.716;2023-03-04T08:41:44;15.00;;;9.40;;
7901;SDS011;3996;49.674;10.716;2023-03-04T08:44:11;15.47;;;9.70;;
7901;SDS011;3996;49.674;10.716;2023-03-04T08:46:37;14.37;;;8.97;;
7901;SDS011;3996;49.674;10.716;2023-03-04T08:49:04;16.20;;;10.07;;
7901;SDS011;3996;49.674;10.716;2023-03-04T08:51:30;15.80;;;9.70;;
7901;SDS011;3996;49.674;10.716;2023-03-04T08:53:56;14.67;;;9.47;;
7901;SDS011;3996;49.674;10.716;2023-03-04T08:56:22;12.00;;;8.60;;
7901;SDS011;3996;49.674;10.716;2023-03-04T08:58:48;14.07;;;8.97;;
7901;SDS011;3996;49.674;10.716;2023-03-04T09:01:14;16.57;;;9.83;;
7901;SDS011;3996;49.674;10.716;2023-03-04T09:03:40;16.67;;;9.07;;
7901;SDS011;3996;49.674;10.716;2023-03-04T09:06:06;15.17;;;9.90;;
7901;SDS011;3996;49.674;10.716;2023-03-04T09:08:33;15.30;;;9.97;;
7901;SDS011;3996;49.674;10.716;2023-03-04T09:10:59;14.77;;;9.27;;
7901;SDS011;3996;49.674;10.716;2023-03-04T09:13:26;13.53;;;9.23;;
7901;SDS011;3996;49.674;10.716;2023-03-04T09:15:54;15.03;;;10.10;;
7901;SDS011;3996;49.674;10.716;2023-03-04T09:18:20;13.97;;;9.20;;
7901;SDS011;3996;49.674;10.716;2023-03-04T09:20:47;16.13;;;10.00;;
7901;SDS011;3996;49.674;10.716;2023-03-04T09:23:13;16.90;;;10.13;;
7901;SDS011;3996;49.674;10.716;2023-03-04T09:25:40;15.47;;;9.73;;
7901;SDS011;3996;49.674;10.716;2023-03-04T09:28:06;14.13;;;9.77;;
7901;SDS011;3996;49.674;10.716;2023-03-04T09:30:32;14.63;;;9.87;;
7901;SDS011;3996;49.674;10.716;2023-03-04T09:32:59;16.20;;;9.93;;
7901;SDS011;3996;49.674;10.716;2023-03-04T09:35:25;15.87;;;9.70;;
7901;SDS011;3996;49.674;10.716;2023-03-04T09:37:51;14.17;;;9.53;;
7901;SDS011;3996;49.674;10.716;2023-03-04T09:40:21;17.63;;;9.37;;
7901;SDS011;3996;49.674;10.716;2023-03-04T09:42:54;14.27;;;9.07;;
7901;SDS011;3996;49.674;10.716;2023-03-04T09:45:24;15.37;;;9.33;;
7901;SDS011;3996;49.674;10.716;2023-03-04T09:47:56;13.63;;;9.27;;
7901;SDS011;3996;49.674;10.716;2023-03-04T09:50:22;13.93;;;9.53;;
7901;SDS011;3996;49.674;10.716;2023-03-04T09:55:34;12.33;;;9.13;;
7901;SDS011;3996;49.674;10.716;2023-03-04T10:05:35;16.60;;;9.33;;
7901;SDS011;3996;49.674;10.716;2023-03-04T10:08:44;16.27;;;9.80;;
7901;SDS011;3996;49.674;10.716;2023-03-04T10:16:45;15.30;;;9.80;;
7901;SDS011;3996;49.674;10.716;2023-03-04T10:21:38;15.87;;;10.03;;
7901;SDS011;3996;49.674;10.716;2023-03-04T10:24:11;14.23;;;9.43;;
7901;SDS011;3996;49.674;10.716;2023-03-04T10:26:39;16.03;;;10.50;;
7901;SDS011;3996;49.674;10.716;2023-03-04T10:29:12;15.30;;;10.27;;
7901;SDS011;3996;49.674;10.716;2023-03-04T10:31:43;15.10;;;9.93;;
7901;SDS011;3996;49.674;10.716;2023-03-04T10:34:10;15.90;;;9.63;;
7901;SDS011;3996;49.674;10.716;2023-03-04T10:36:49;18.43;;;9.97;;
7901;SDS011;3996;49.674;10.716;2023-03-04T10:39:17;15.13;;;9.87;;
7901;SDS011;3996;49.674;10.716;2023-03-04T10:41:45;16.47;;;10.40;;
7901;SDS011;3996;49.674;10.716;2023-03-04T10:44:28;15.53;;;10.27;;
7901;SDS011;3996;49.674;10.716;2023-03-04T10:46:55;15.07;;;9.53;;
7901;SDS011;3996;49.674;10.716;2023-03-04T10:49:22;16.03;;;10.40;;
7901;SDS011;3996;49.674;10.716;2023-03-04T10:54:46;15.23;;;10.43;;
7901;SDS011;3996;49.674;10.716;2023-03-04T11:02:33;14.90;;;10.53;;
7901;SDS011;3996;49.674;10.716;2023-03-04T11:07:34;13.73;;;9.00;;
7901;SDS011;3996;49.674;10.716;2023-03-04T11:10:12;15.57;;;9.33;;
7901;SDS011;3996;49.674;10.716;2023-03-04T11:12:41;12.33;;;9.00;;
7901;SDS011;3996;49.674;10.716;2023-03-04T11:15:19;10.70;;;7.87;;
7901;SDS011;3996;49.674;10.716;2023-03-04T11:18:12;12.27;;;8.33;;
7901;SDS011;3996;49.674;10.716;2023-03-04T11:20:38;14.50;;;8.73;;
7901;SDS011;3996;49.674;10.716;2023-03-04T11:23:11;14.10;;;8.50;;
7901;SDS011;3996;49.674;10.716;2023-03-04T11:25:42;14.80;;;8.00;;
7901;SDS011;3996;49.674;10.716;2023-03-04T11:31:08;14.17;;;8.40;;
7901;SDS011;3996;49.674;10.716;2023-03-04T11:34:22;12.93;;;7.67;;
7901;SDS011;3996;49.674;10.716;2023-03-04T11:43:02;12.60;;;7.33;;
7901;SDS011;3996;49.674;10.716;2023-03-04T11:45:24;12.63;;;7.90;;
7901;SDS011;3996;49.674;10.716;2023-03-04T11:50:40;11.77;;;7.80;;
7901;SDS011;3996;49.674;10.716;2023-03-04T11:58:35;11.37;;;7.13;;
7901;SDS011;3996;49.674;10.716;2023-03-04T12:06:45;11.60;;;7.17;;
7901;SDS011;3996;49.674;10.716;2023-03-04T12:32:23;13.80;;;7.33;;
7901;SDS011;3996;49.674;10.716;2023-03-04T12:34:53;13.83;;;7.63;;
7901;SDS011;3996;49.674;10.716;2023-03-04T12:38:11;13.40;;;6.77;;
7901;SDS011;3996;49.674;10.716;2023-03-04T12:43:04;13.93;;;8.00;;
7901;SDS011;3996;49.674;10.716;2023-03-04T12:45:43;15.07;;;7.63;;
7901;SDS011;3996;49.674;10.716;2023-03-04T12:48:31;14.73;;;7.77;;
7901;SDS011;3996;49.674;10.716;2023-03-04T12:53:57;13.30;;;6.77;;
7901;SDS011;3996;49.674;10.716;2023-03-04T12:56:36;12.07;;;7.47;;
7901;SDS011;3996;49.674;10.716;2023-03-04T12:59:03;14.40;;;6.97;;
7901;SDS011;3996;49.674;10.716;2023-03-04T13:01:55;14.73;;;7.43;;
7901;SDS011;3996;49.674;10.716;2023-03-04T13:07:39;16.17;;;7.53;;
7901;SDS011;3996;49.674;10.716;2023-03-04T13:10:24;15.43;;;7.67;;
7901;SDS011;3996;49.674;10.716;2023-03-04T13:17:55;14.90;;;7.77;;
7901;SDS011;3996;49.674;10.716;2023-03-04T13:43:36;11.87;;;7.83;;
7901;SDS011;3996;49.674;10.716;2023-03-04T13:51:28;13.87;;;7.73;;
7901;SDS011;3996;49.674;10.716;2023-03-04T14:03:59;15.43;;;9.33;;
7901;SDS011;3996;49.674;10.716;2023-03-04T14:06:27;16.30;;;10.17;;
7901;SDS011;3996;49.674;10.716;2023-03-04T14:08:54;13.87;;;8.30;;
7901;SDS011;3996;49.674;10.716;2023-03-04T14:11:39;13.73;;;8.37;;
7901;SDS011;3996;49.674;10.716;2023-03-04T14:14:07;17.17;;;8.73;;
7901;SDS011;3996;49.674;10.716;2023-03-04T14:16:45;19.37;;;9.53;;
7901;SDS011;3996;49.674;10.716;2023-03-04T14:19:15;13.97;;;8.57;;
7901;SDS011;3996;49.674;10.716;2023-03-04T14:21:46;12.53;;;8.00;;
7901;SDS011;3996;49.674;10.716;2023-03-04T14:24:12;15.67;;;9.07;;
7901;SDS011;3996;49.674;10.716;2023-03-04T14:26:40;15.87;;;8.43;;
7901;SDS011;3996;49.674;10.716;2023-03-04T14:29:22;14.57;;;8.83;;
7901;SDS011;3996;49.674;10.716;2023-03-04T14:31:51;17.10;;;9.67;;
7901;SDS011;3996;49.674;10.716;2023-03-04T14:34:25;14.20;;;8.53;;
7901;SDS011;3996;49.674;10.716;2023-03-04T14:37:00;14.57;;;7.87;;
7901;SDS011;3996;49.674;10.716;2023-03-04T14:39:28;14.47;;;8.33;;
7901;SDS011;3996;49.674;10.716;2023-03-04T14:41:57;13.13;;;7.73;;
7901;SDS011;3996;49.674;10.716;2023-03-04T14:44:32;15.67;;;8.27;;
7901;SDS011;3996;49.674;10.716;2023-03-04T14:47:14;17.50;;;8.57;;
7901;SDS011;3996;49.674;10.716;2023-03-04T14:49:47;18.63;;;9.20;;
7901;SDS011;3996;49.674;10.716;2023-03-04T14:52:30;16.20;;;8.43;;
7901;SDS011;3996;49.674;10.716;2023-03-04T14:55:15;14.90;;;8.60;;
7901;SDS011;3996;49.674;10.716;2023-03-04T14:57:47;14.50;;;8.77;;
7901;SDS011;3996;49.674;10.716;2023-03-04T15:00:27;15.30;;;8.43;;
7901;SDS011;3996;49.674;10.716;2023-03-04T15:02:59;15.13;;;7.80;;
7901;SDS011;3996;49.674;10.716;2023-03-04T15:05:28;15.43;;;8.30;;
7901;SDS011;3996;49.674;10.716;2023-03-04T15:08:03;16.60;;;8.00;;
7901;SDS011;3996;49.674;10.716;2023-03-04T15:10:59;15.07;;;7.93;;
7901;SDS011;3996;49.674;10.716;2023-03-04T15:13:46;16.33;;;8.40;;
7901;SDS011;3996;49.674;10.716;2023-03-04T15:16:14;11.67;;;7.60;;
7901;SDS011;3996;49.674;10.716;2023-03-04T15:18:57;15.37;;;7.50;;
7901;SDS011;3996;49.674;10.716;2023-03-04T15:21:34;16.37;;;7.77;;
7901;SDS011;3996;49.674;10.716;2023-03-04T15:24:05;10.70;;;7.17;;
7901;SDS011;3996;49.674;10.716;2023-03-04T15:26:32;51.90;;;30.17;;
7901;SDS011;3996;49.674;10.716;2023-03-04T15:29:02;25.73;;;15.07;;
7901;SDS011;3996;49.674;10.716;2023-03-04T15:31:35;18.03;;;11.83;;
7901;SDS011;3996;49.674;10.716;2023-03-04T15:34:01;16.97;;;9.27;;
7901;SDS011;3996;49.674;10.716;2023-03-04T15:36:26;14.07;;;7.57;;
7901;SDS011;3996;49.674;10.716;2023-03-04T15:38:52;12.70;;;6.80;;
7901;SDS011;3996;49.674;10.716;2023-03-04T15:41:26;12.67;;;6.10;;
7901;SDS011;3996;49.674;10.716;2023-03-04T15:43:52;13.33;;;5.97;;
7901;SDS011;3996;49.674;10.716;2023-03-04T15:46:19;13.00;;;6.93;;
7901;SDS011;3996;49.674;10.716;2023-03-04T15:48:45;13.17;;;8.17;;
7901;SDS011;3996;49.674;10.716;2023-03-04T15:51:13;16.23;;;8.70;;
7901;SDS011;3996;49.674;10.716;2023-03-04T15:53:43;17.20;;;8.10;;
7901;SDS011;3996;49.674;10.716;2023-03-04T15:56:27;22.33;;;10.47;;
7901;SDS011;3996;49.674;10.716;2023-03-04T15:58:56;15.40;;;11.30;;
7901;SDS011;3996;49.674;10.716;2023-03-04T16:01:30;16.23;;;9.60;;
7901;SDS011;3996;49.674;10.716;2023-03-04T16:03:55;17.97;;;8.40;;
7901;SDS011;3996;49.674;10.716;2023-03-04T16:06:21;17.27;;;8.57;;
7901;SDS011;3996;49.674;10.716;2023-03-04T16:08:50;12.97;;;6.80;;
7901;SDS011;3996;49.674;10.716;2023-03-04T16:11:21;16.70;;;7.57;;
7901;SDS011;3996;49.674;10.716;2023-03-04T16:13:49;12.90;;;6.57;;
7901;SDS011;3996;49.674;10.716;2023-03-04T16:16:15;16.73;;;6.43;;
7901;SDS011;3996;49.674;10.716;2023-03-04T16:18:42;14.00;;;6.50;;
7901;SDS011;3996;49.674;10.716;2023-03-04T16:21:15;17.33;;;9.97;;
7901;SDS011;3996;49.674;10.716;2023-03-04T16:23:43;17.57;;;12.37;;
7901;SDS011;3996;49.674;10.716;2023-03-04T16:26:15;29.70;;;18.50;;
7901;SDS011;3996;49.674;10.716;2023-03-04T16:28:42;25.10;;;16.40;;
7901;SDS011;3996;49.674;10.716;2023-03-04T16:31:09;26.33;;;15.70;;
7901;SDS011;3996;49.674;10.716;2023-03-04T16:33:35;16.77;;;10.00;;
7901;SDS011;3996;49.674;10.716;2023-03-04T16:36:01;17.80;;;9.63;;
7901;SDS011;3996;49.674;10.716;2023-03-04T16:38:29;20.20;;;12.63;;
7901;SDS011;3996;49.674;10.716;2023-03-04T16:40:56;18.23;;;8.20;;
7901;SDS011;3996;49.674;10.716;2023-03-04T16:43:23;13.87;;;7.80;;
7901;SDS011;3996;49.674;10.716;2023-03-04T16:45:49;15.90;;;8.30;;
7901;SDS011;3996;49.674;10.716;2023-03-04T16:48:15;12.83;;;7.20;;
7901;SDS011;3996;49.674;10.716;2023-03-04T16:50:41;13.43;;;6.77;;
7901;SDS011;3996;49.674;10.716;2023-03-04T16:55:52;14.43;;;6.33;;
7901;SDS011;3996;49.674;10.716;2023-03-04T16:58:18;16.00;;;6.63;;
7901;SDS011;3996;49.674;10.716;2023-03-04T17:00:43;10.33;;;6.20;;
7901;SDS011;3996;49.674;10.716;2023-03-04T17:03:09;11.37;;;6.10;;
7901;SDS011;3996;49.674;10.716;2023-03-04T17:05:35;15.60;;;6.17;;
7901;SDS011;3996;49.674;10.716;2023-03-04T17:08:01;12.83;;;6.70;;
7901;SDS011;3996;49.674;10.716;2023-03-04T17:10:27;13.70;;;6.77;;